sensor_id;sensor_type;location;lat;lon;timestamp;P1;durP1;ratioP1;P2;durP2;ratioP2
66212;SDS011;53015;50.046;8.238;2023-04-24T00:00:12;1.40;;;0.90;;
66212;SDS011;53015;50.046;8.238;2023-04-24T00:02:38;1.70;;;0.73;;
66212;SDS011;53015;50.046;8.238;2023-04-24T00:05:04;1.20;;;0.70;;
66212;SDS011;53015;50.046;8.238;2023-04-24T00:07:30;2.58;;;0.70;;
66212;SDS011;53015;50.046;8.238;2023-04-24T00:09:56;1.38;;;0.80;;
66212;SDS011;53015;50.046;8.238;2023-04-24T00:12:23;2.25;;;0.60;;
66212;SDS011;53015;50.046;8.238;2023-04-24T00:14:48;1.77;;;0.60;;
66212;SDS011;53015;50.046;8.238;2023-04-24T00:17:14;2.53;;;0.90;;
66212;SDS011;53015;50.046;8.238;2023-04-24T00:19:40;1.02;;;0.50;;
66212;SDS011;53015;50.046;8.238;2023-04-24T00:22:05;2.25;;;0.90;;
66212;SDS011;53015;50.046;8.238;2023-04-24T00:24:31;2.15;;;0.70;;
66212;SDS011;53015;50.046;8.238;2023-04-24T00:26:56;3.92;;;0.90;;
66212;SDS011;53015;50.046;8.238;2023-04-24T00:29:23;0.98;;;0.65;;
66212;SDS011;53015;50.046;8.238;2023-04-24T00:31:49;1.95;;;0.73;;
66212;SDS011;53015;50.046;8.238;2023-04-24T00:34:14;0.95;;;0.65;;
66212;SDS011;53015;50.046;8.238;2023-04-24T00:36:40;2.08;;;0.60;;
66212;SDS011;53015;50.046;8.238;2023-04-24T00:39:05;0.85;;;0.50;;
66212;SDS011;53015;50.046;8.238;2023-04-24T00:41:31;1.13;;;0.60;;
66212;SDS011;53015;50.046;8.238;2023-04-24T00:43:56;3.42;;;0.70;;
66212;SDS011;53015;50.046;8.238;2023-04-24T00:46:23;0.70;;;0.60;;
66212;SDS011;53015;50.046;8.238;2023-04-24T00:48:49;4.78;;;0.70;;
66212;SDS011;53015;50.046;8.238;2023-04-24T00:51:15;4.50;;;0.70;;
66212;SDS011;53015;50.046;8.238;2023-04-24T00:53:40;0.63;;;0.50;;
66212;SDS011;53015;50.046;8.238;2023-04-24T00:56:06;1.25;;;0.65;;
66212;SDS011;53015;50.046;8.238;2023-04-24T00:58:32;2.28;;;0.85;;
66212;SDS011;53015;50.046;8.238;2023-04-24T01:00:58;1.98;;;0.70;;
66212;SDS011;53015;50.046;8.238;2023-04-24T01:03:27;1.73;;;0.50;;
66212;SDS011;53015;50.046;8.238;2023-04-24T01:05:54;3.67;;;0.85;;
66212;SDS011;53015;50.046;8.238;2023-04-24T01:08:20;7.13;;;2.35;;
66212;SDS011;53015;50.046;8.238;2023-04-24T01:10:48;4.00;;;0.70;;
66212;SDS011;53015;50.046;8.238;2023-04-24T01:13:16;1.23;;;0.80;;
66212;SDS011;53015;50.046;8.238;2023-04-24T01:15:42;1.48;;;0.50;;
66212;SDS011;53015;50.046;8.238;2023-04-24T01:18:08;3.47;;;0.80;;
66212;SDS011;53015;50.046;8.238;2023-04-24T01:20:35;2.15;;;0.40;;
66212;SDS011;53015;50.046;8.238;2023-04-24T01:23:03;2.63;;;0.60;;
66212;SDS011;53015;50.046;8.238;2023-04-24T01:25:29;1.48;;;0.57;;
66212;SDS011;53015;50.046;8.238;2023-04-24T01:27:55;1.25;;;0.88;;
66212;SDS011;53015;50.046;8.238;2023-04-24T01:30:20;2.85;;;0.60;;
66212;SDS011;53015;50.046;8.238;2023-04-24T01:32:46;1.83;;;0.60;;
66212;SDS011;53015;50.046;8.238;2023-04-24T01:35:12;2.95;;;0.90;;
66212;SDS011;53015;50.046;8.238;2023-04-24T01:37:37;2.90;;;0.70;;
66212;SDS011;53015;50.046;8.238;2023-04-24T01:40:05;1.25;;;0.60;;
66212;SDS011;53015;50.046;8.238;2023-04-24T01:42:31;2.58;;;0.75;;
66212;SDS011;53015;50.046;8.238;2023-04-24T01:44:57;0.90;;;0.60;;
66212;SDS011;53015;50.046;8.238;2023-04-24T01:47:23;1.38;;;0.70;;
66212;SDS011;53015;50.046;8.238;2023-04-24T01:49:49;2.55;;;0.63;;
66212;SDS011;53015;50.046;8.238;2023-04-24T01:52:16;4.15;;;0.80;;
66212;SDS011;53015;50.046;8.238;2023-04-24T01:54:42;0.82;;;0.40;;
66212;SDS011;53015;50.046;8.238;2023-04-24T01:57:09;1.65;;;0.68;;
66212;SDS011;53015;50.046;8.238;2023-04-24T01:59:35;2.70;;;0.80;;
66212;SDS011;53015;50.046;8.238;2023-04-24T02:02:00;1.95;;;0.70;;
66212;SDS011;53015;50.046;8.238;2023-04-24T02:04:26;2.95;;;0.57;;
66212;SDS011;53015;50.046;8.238;2023-04-24T02:06:52;2.15;;;0.60;;
66212;SDS011;53015;50.046;8.238;2023-04-24T02:09:17;1.83;;;0.57;;
66212;SDS011;53015;50.046;8.238;2023-04-24T02:11:43;3.63;;;0.80;;
66212;SDS011;53015;50.046;8.238;2023-04-24T02:14:09;1.33;;;0.60;;
66212;SDS011;53015;50.046;8.238;2023-04-24T02:16:35;2.17;;;0.60;;
66212;SDS011;53015;50.046;8.238;2023-04-24T02:19:00;0.63;;;0.57;;
66212;SDS011;53015;50.046;8.238;2023-04-24T02:21:26;1.90;;;0.70;;
66212;SDS011;53015;50.046;8.238;2023-04-24T02:23:51;2.38;;;0.95;;
66212;SDS011;53015;50.046;8.238;2023-04-24T02:26:17;2.00;;;0.70;;
66212;SDS011;53015;50.046;8.238;2023-04-24T02:28:42;2.03;;;0.52;;
66212;SDS011;53015;50.046;8.238;2023-04-24T02:31:10;3.13;;;0.75;;
66212;SDS011;53015;50.046;8.238;2023-04-24T02:33:35;3.92;;;0.77;;
66212;SDS011;53015;50.046;8.238;2023-04-24T02:36:01;2.17;;;0.63;;
66212;SDS011;53015;50.046;8.238;2023-04-24T02:38:27;1.23;;;0.50;;
66212;SDS011;53015;50.046;8.238;2023-04-24T02:40:53;2.70;;;0.80;;
66212;SDS011;53015;50.046;8.238;2023-04-24T02:43:18;1.08;;;0.60;;
66212;SDS011;53015;50.046;8.238;2023-04-24T02:45:44;0.60;;;0.60;;
66212;SDS011;53015;50.046;8.238;2023-04-24T02:48:10;2.55;;;0.63;;
66212;SDS011;53015;50.046;8.238;2023-04-24T02:50:37;1.40;;;0.70;;
66212;SDS011;53015;50.046;8.238;2023-04-24T02:53:03;2.50;;;0.70;;
66212;SDS011;53015;50.046;8.238;2023-04-24T02:55:28;5.75;;;0.77;;
66212;SDS011;53015;50.046;8.238;2023-04-24T02:57:54;2.92;;;0.82;;
66212;SDS011;53015;50.046;8.238;2023-04-24T03:00:19;3.55;;;0.70;;
66212;SDS011;53015;50.046;8.238;2023-04-24T03:02:45;3.90;;;0.80;;
66212;SDS011;53015;50.046;8.238;2023-04-24T03:05:12;1.38;;;0.70;;
66212;SDS011;53015;50.046;8.238;2023-04-24T03:07:37;3.60;;;0.88;;
66212;SDS011;53015;50.046;8.238;2023-04-24T03:10:03;2.10;;;0.68;;
66212;SDS011;53015;50.046;8.238;2023-04-24T03:12:29;2.30;;;0.70;;
66212;SDS011;53015;50.046;8.238;2023-04-24T03:14:55;2.70;;;0.80;;
66212;SDS011;53015;50.046;8.238;2023-04-24T03:17:20;0.80;;;0.52;;
66212;SDS011;53015;50.046;8.238;2023-04-24T03:19:46;4.00;;;0.70;;
66212;SDS011;53015;50.046;8.238;2023-04-24T03:22:13;1.13;;;0.77;;
66212;SDS011;53015;50.046;8.238;2023-04-24T03:24:38;3.55;;;0.88;;
66212;SDS011;53015;50.046;8.238;2023-04-24T03:27:04;1.13;;;0.60;;
66212;SDS011;53015;50.046;8.238;2023-04-24T03:29:29;2.00;;;0.73;;
66212;SDS011;53015;50.046;8.238;2023-04-24T03:31:55;1.63;;;0.60;;
66212;SDS011;53015;50.046;8.238;2023-04-24T03:34:20;1.67;;;0.70;;
66212;SDS011;53015;50.046;8.238;2023-04-24T03:36:46;1.08;;;0.73;;
66212;SDS011;53015;50.046;8.238;2023-04-24T03:39:13;1.40;;;0.68;;
66212;SDS011;53015;50.046;8.238;2023-04-24T03:41:38;0.88;;;0.50;;
66212;SDS011;53015;50.046;8.238;2023-04-24T03:44:03;1.83;;;0.60;;
66212;SDS011;53015;50.046;8.238;2023-04-24T03:46:29;1.80;;;0.70;;
66212;SDS011;53015;50.046;8.238;2023-04-24T03:48:54;1.77;;;0.63;;
66212;SDS011;53015;50.046;8.238;2023-04-24T03:51:20;0.70;;;0.70;;
66212;SDS011;53015;50.046;8.238;2023-04-24T03:53:45;0.60;;;0.60;;
66212;SDS011;53015;50.046;8.238;2023-04-24T03:56:12;1.05;;;0.70;;
66212;SDS011;53015;50.046;8.238;2023-04-24T03:58:38;5.03;;;2.10;;
66212;SDS011;53015;50.046;8.238;2023-04-24T04:01:03;0.95;;;0.95;;
66212;SDS011;53015;50.046;8.238;2023-04-24T04:03:29;2.38;;;0.70;;
66212;SDS011;53015;50.046;8.238;2023-04-24T04:05:54;1.00;;;0.68;;
66212;SDS011;53015;50.046;8.238;2023-04-24T04:08:20;1.05;;;0.90;;
66212;SDS011;53015;50.046;8.238;2023-04-24T04:10:45;2.38;;;0.80;;
66212;SDS011;53015;50.046;8.238;2023-04-24T04:13:12;0.70;;;0.63;;
66212;SDS011;53015;50.046;8.238;2023-04-24T04:15:38;1.05;;;0.70;;
66212;SDS011;53015;50.046;8.238;2023-04-24T04:18:03;1.77;;;0.80;;
66212;SDS011;53015;50.046;8.238;2023-04-24T04:20:29;1.33;;;0.80;;
66212;SDS011;53015;50.046;8.238;2023-04-24T04:22:54;2.60;;;0.80;;
66212;SDS011;53015;50.046;8.238;2023-04-24T04:25:20;2.72;;;0.90;;
66212;SDS011;53015;50.046;8.238;2023-04-24T04:27:45;1.13;;;0.77;;
66212;SDS011;53015;50.046;8.238;2023-04-24T04:30:13;4.03;;;1.05;;
66212;SDS011;53015;50.046;8.238;2023-04-24T04:32:39;0.82;;;0.80;;
66212;SDS011;53015;50.046;8.238;2023-04-24T04:35:04;5.70;;;0.80;;
66212;SDS011;53015;50.046;8.238;2023-04-24T04:37:30;0.90;;;0.65;;
66212;SDS011;53015;50.046;8.238;2023-04-24T04:39:56;2.88;;;0.85;;
66212;SDS011;53015;50.046;8.238;2023-04-24T04:42:21;1.17;;;1.02;;
66212;SDS011;53015;50.046;8.238;2023-04-24T04:44:47;2.10;;;0.93;;
66212;SDS011;53015;50.046;8.238;2023-04-24T04:47:14;2.10;;;0.95;;
66212;SDS011;53015;50.046;8.238;2023-04-24T04:49:39;2.08;;;0.90;;
66212;SDS011;53015;50.046;8.238;2023-04-24T04:52:05;3.53;;;2.15;;
66212;SDS011;53015;50.046;8.238;2023-04-24T04:54:30;3.80;;;1.60;;
66212;SDS011;53015;50.046;8.238;2023-04-24T04:56:55;1.55;;;1.40;;
66212;SDS011;53015;50.046;8.238;2023-04-24T04:59:21;1.98;;;1.17;;
66212;SDS011;53015;50.046;8.238;2023-04-24T05:01:46;3.17;;;1.33;;
66212;SDS011;53015;50.046;8.238;2023-04-24T05:04:13;2.95;;;1.30;;
66212;SDS011;53015;50.046;8.238;2023-04-24T05:06:39;2.65;;;1.05;;
66212;SDS011;53015;50.046;8.238;2023-04-24T05:09:05;2.13;;;1.20;;
66212;SDS011;53015;50.046;8.238;2023-04-24T05:11:30;1.60;;;1.27;;
66212;SDS011;53015;50.046;8.238;2023-04-24T05:13:56;1.98;;;1.20;;
66212;SDS011;53015;50.046;8.238;2023-04-24T05:16:21;3.88;;;1.15;;
66212;SDS011;53015;50.046;8.238;2023-04-24T05:18:46;1.20;;;1.10;;
66212;SDS011;53015;50.046;8.238;2023-04-24T05:21:13;1.30;;;1.20;;
66212;SDS011;53015;50.046;8.238;2023-04-24T05:23:39;2.03;;;1.30;;
66212;SDS011;53015;50.046;8.238;2023-04-24T05:26:04;4.60;;;1.55;;
66212;SDS011;53015;50.046;8.238;2023-04-24T05:28:30;4.03;;;1.80;;
66212;SDS011;53015;50.046;8.238;2023-04-24T05:30:55;2.92;;;1.60;;
66212;SDS011;53015;50.046;8.238;2023-04-24T05:33:21;1.45;;;1.30;;
66212;SDS011;53015;50.046;8.238;2023-04-24T05:35:46;2.85;;;1.58;;
66212;SDS011;53015;50.046;8.238;2023-04-24T05:38:13;6.97;;;1.73;;
66212;SDS011;53015;50.046;8.238;2023-04-24T05:40:39;5.05;;;1.40;;
66212;SDS011;53015;50.046;8.238;2023-04-24T05:43:04;2.88;;;1.45;;
66212;SDS011;53015;50.046;8.238;2023-04-24T05:45:30;3.40;;;1.73;;
66212;SDS011;53015;50.046;8.238;2023-04-24T05:47:56;2.63;;;1.38;;
66212;SDS011;53015;50.046;8.238;2023-04-24T05:50:21;5.65;;;1.48;;
66212;SDS011;53015;50.046;8.238;2023-04-24T05:52:47;2.50;;;1.55;;
66212;SDS011;53015;50.046;8.238;2023-04-24T05:55:14;2.00;;;1.40;;
66212;SDS011;53015;50.046;8.238;2023-04-24T05:57:39;4.53;;;1.70;;
66212;SDS011;53015;50.046;8.238;2023-04-24T06:00:05;1.38;;;1.27;;
66212;SDS011;53015;50.046;8.238;2023-04-24T06:02:31;3.45;;;1.58;;
66212;SDS011;53015;50.046;8.238;2023-04-24T06:04:57;1.90;;;1.30;;
66212;SDS011;53015;50.046;8.238;2023-04-24T06:07:22;1.98;;;1.30;;
66212;SDS011;53015;50.046;8.238;2023-04-24T06:09:48;1.40;;;1.25;;
66212;SDS011;53015;50.046;8.238;2023-04-24T06:12:15;2.20;;;1.60;;
66212;SDS011;53015;50.046;8.238;2023-04-24T06:14:40;2.85;;;1.52;;
66212;SDS011;53015;50.046;8.238;2023-04-24T06:17:06;2.85;;;1.42;;
66212;SDS011;53015;50.046;8.238;2023-04-24T06:19:31;2.85;;;1.30;;
66212;SDS011;53015;50.046;8.238;2023-04-24T06:21:57;1.77;;;1.40;;
66212;SDS011;53015;50.046;8.238;2023-04-24T06:24:24;3.38;;;2.65;;
66212;SDS011;53015;50.046;8.238;2023-04-24T06:26:52;1.40;;;1.30;;
66212;SDS011;53015;50.046;8.238;2023-04-24T06:29:19;2.22;;;1.75;;
66212;SDS011;53015;50.046;8.238;2023-04-24T06:31:44;2.00;;;1.40;;
66212;SDS011;53015;50.046;8.238;2023-04-24T06:34:10;4.93;;;1.35;;
66212;SDS011;53015;50.046;8.238;2023-04-24T06:36:35;2.63;;;1.50;;
66212;SDS011;53015;50.046;8.238;2023-04-24T06:39:01;2.65;;;1.30;;
66212;SDS011;53015;50.046;8.238;2023-04-24T06:41:27;3.50;;;1.45;;
66212;SDS011;53015;50.046;8.238;2023-04-24T06:43:53;1.85;;;1.10;;
66212;SDS011;53015;50.046;8.238;2023-04-24T06:46:20;3.05;;;1.30;;
66212;SDS011;53015;50.046;8.238;2023-04-24T06:48:46;1.60;;;1.27;;
66212;SDS011;53015;50.046;8.238;2023-04-24T06:51:11;1.83;;;1.20;;
66212;SDS011;53015;50.046;8.238;2023-04-24T06:53:37;1.60;;;1.20;;
66212;SDS011;53015;50.046;8.238;2023-04-24T06:56:02;2.53;;;1.27;;
66212;SDS011;53015;50.046;8.238;2023-04-24T06:58:28;2.83;;;1.38;;
66212;SDS011;53015;50.046;8.238;2023-04-24T07:00:55;1.35;;;1.25;;
66212;SDS011;53015;50.046;8.238;2023-04-24T07:03:22;2.80;;;1.42;;
66212;SDS011;53015;50.046;8.238;2023-04-24T07:05:48;1.85;;;1.40;;
66212;SDS011;53015;50.046;8.238;2023-04-24T07:08:13;1.95;;;1.30;;
66212;SDS011;53015;50.046;8.238;2023-04-24T07:10:39;2.03;;;1.20;;
66212;SDS011;53015;50.046;8.238;2023-04-24T07:13:04;2.28;;;1.33;;
66212;SDS011;53015;50.046;8.238;2023-04-24T07:15:30;4.30;;;1.20;;
66212;SDS011;53015;50.046;8.238;2023-04-24T07:17:55;2.80;;;1.30;;
66212;SDS011;53015;50.046;8.238;2023-04-24T07:20:22;2.20;;;1.40;;
66212;SDS011;53015;50.046;8.238;2023-04-24T07:22:48;3.35;;;1.20;;
66212;SDS011;53015;50.046;8.238;2023-04-24T07:25:13;1.30;;;1.10;;
66212;SDS011;53015;50.046;8.238;2023-04-24T07:27:39;1.15;;;1.00;;
66212;SDS011;53015;50.046;8.238;2023-04-24T07:30:05;2.38;;;1.50;;
66212;SDS011;53015;50.046;8.238;2023-04-24T07:32:31;2.83;;;1.42;;
66212;SDS011;53015;50.046;8.238;2023-04-24T07:34:57;1.88;;;1.20;;
66212;SDS011;53015;50.046;8.238;2023-04-24T07:37:23;4.75;;;1.63;;
66212;SDS011;53015;50.046;8.238;2023-04-24T07:39:49;1.73;;;1.30;;
66212;SDS011;53015;50.046;8.238;2023-04-24T07:42:15;2.85;;;1.83;;
66212;SDS011;53015;50.046;8.238;2023-04-24T07:44:40;1.95;;;1.30;;
66212;SDS011;53015;50.046;8.238;2023-04-24T07:47:05;1.83;;;1.30;;
66212;SDS011;53015;50.046;8.238;2023-04-24T07:49:31;3.28;;;1.75;;
66212;SDS011;53015;50.046;8.238;2023-04-24T07:51:56;3.55;;;1.35;;
66212;SDS011;53015;50.046;8.238;2023-04-24T07:54:23;1.45;;;1.23;;
66212;SDS011;53015;50.046;8.238;2023-04-24T07:56:49;2.30;;;1.10;;
66212;SDS011;53015;50.046;8.238;2023-04-24T07:59:14;3.53;;;1.50;;
66212;SDS011;53015;50.046;8.238;2023-04-24T08:01:40;1.67;;;1.27;;
66212;SDS011;53015;50.046;8.238;2023-04-24T08:04:05;2.53;;;1.20;;
66212;SDS011;53015;50.046;8.238;2023-04-24T08:06:31;1.85;;;1.50;;
66212;SDS011;53015;50.046;8.238;2023-04-24T08:08:56;2.42;;;1.40;;
66212;SDS011;53015;50.046;8.238;2023-04-24T08:11:24;1.85;;;1.27;;
66212;SDS011;53015;50.046;8.238;2023-04-24T08:13:49;1.27;;;1.17;;
66212;SDS011;53015;50.046;8.238;2023-04-24T08:16:15;1.67;;;1.20;;
66212;SDS011;53015;50.046;8.238;2023-04-24T08:18:40;2.00;;;1.40;;
66212;SDS011;53015;50.046;8.238;2023-04-24T08:21:06;1.70;;;1.20;;
66212;SDS011;53015;50.046;8.238;2023-04-24T08:23:31;3.42;;;1.30;;
66212;SDS011;53015;50.046;8.238;2023-04-24T08:25:57;2.22;;;1.40;;
66212;SDS011;53015;50.046;8.238;2023-04-24T08:28:24;1.65;;;1.23;;
66212;SDS011;53015;50.046;8.238;2023-04-24T08:30:50;1.77;;;1.42;;
66212;SDS011;53015;50.046;8.238;2023-04-24T08:33:15;2.47;;;1.10;;
66212;SDS011;53015;50.046;8.238;2023-04-24T08:35:41;1.50;;;1.00;;
66212;SDS011;53015;50.046;8.238;2023-04-24T08:38:06;1.50;;;1.30;;
66212;SDS011;53015;50.046;8.238;2023-04-24T08:40:33;1.38;;;1.13;;
66212;SDS011;53015;50.046;8.238;2023-04-24T08:42:59;1.88;;;1.15;;
66212;SDS011;53015;50.046;8.238;2023-04-24T08:45:27;1.45;;;1.13;;
66212;SDS011;53015;50.046;8.238;2023-04-24T08:47:53;1.45;;;1.10;;
66212;SDS011;53015;50.046;8.238;2023-04-24T08:50:19;2.55;;;1.40;;
66212;SDS011;53015;50.046;8.238;2023-04-24T08:52:44;2.33;;;1.20;;
66212;SDS011;53015;50.046;8.238;2023-04-24T08:55:10;2.15;;;1.00;;
66212;SDS011;53015;50.046;8.238;2023-04-24T08:57:35;1.60;;;1.27;;
66212;SDS011;53015;50.046;8.238;2023-04-24T09:00:01;2.22;;;1.35;;
66212;SDS011;53015;50.046;8.238;2023-04-24T09:02:28;1.10;;;1.00;;
66212;SDS011;53015;50.046;8.238;2023-04-24T09:04:54;1.55;;;1.13;;
66212;SDS011;53015;50.046;8.238;2023-04-24T09:07:21;1.08;;;0.98;;
66212;SDS011;53015;50.046;8.238;2023-04-24T09:09:49;1.88;;;0.98;;
66212;SDS011;53015;50.046;8.238;2023-04-24T09:12:15;2.45;;;1.30;;
66212;SDS011;53015;50.046;8.238;2023-04-24T09:14:42;3.55;;;1.00;;
66212;SDS011;53015;50.046;8.238;2023-04-24T09:17:07;2.08;;;0.90;;
66212;SDS011;53015;50.046;8.238;2023-04-24T09:19:34;2.60;;;0.93;;
66212;SDS011;53015;50.046;8.238;2023-04-24T09:22:00;1.33;;;1.00;;
66212;SDS011;53015;50.046;8.238;2023-04-24T09:24:30;1.85;;;1.00;;
66212;SDS011;53015;50.046;8.238;2023-04-24T09:26:56;1.10;;;1.00;;
66212;SDS011;53015;50.046;8.238;2023-04-24T09:29:22;1.23;;;1.13;;
66212;SDS011;53015;50.046;8.238;2023-04-24T09:31:47;2.35;;;1.15;;
66212;SDS011;53015;50.046;8.238;2023-04-24T09:34:13;2.00;;;0.98;;
66212;SDS011;53015;50.046;8.238;2023-04-24T09:36:41;0.82;;;0.70;;
66212;SDS011;53015;50.046;8.238;2023-04-24T09:39:08;1.95;;;1.38;;
66212;SDS011;53015;50.046;8.238;2023-04-24T09:41:34;1.00;;;0.82;;
66212;SDS011;53015;50.046;8.238;2023-04-24T09:44:10;1.70;;;0.88;;
66212;SDS011;53015;50.046;8.238;2023-04-24T09:46:36;1.00;;;0.90;;
66212;SDS011;53015;50.046;8.238;2023-04-24T09:49:07;1.27;;;1.00;;
66212;SDS011;53015;50.046;8.238;2023-04-24T09:51:33;2.28;;;0.77;;
66212;SDS011;53015;50.046;8.238;2023-04-24T09:54:01;1.73;;;0.80;;
66212;SDS011;53015;50.046;8.238;2023-04-24T09:56:27;1.45;;;0.98;;
66212;SDS011;53015;50.046;8.238;2023-04-24T09:58:52;1.27;;;0.93;;
66212;SDS011;53015;50.046;8.238;2023-04-24T10:01:28;1.08;;;0.90;;
66212;SDS011;53015;50.046;8.238;2023-04-24T10:03:55;2.20;;;1.00;;
66212;SDS011;53015;50.046;8.238;2023-04-24T10:06:20;1.15;;;0.90;;
66212;SDS011;53015;50.046;8.238;2023-04-24T10:08:46;2.08;;;1.02;;
66212;SDS011;53015;50.046;8.238;2023-04-24T10:11:15;1.58;;;0.90;;
66212;SDS011;53015;50.046;8.238;2023-04-24T10:13:41;3.17;;;1.20;;
66212;SDS011;53015;50.046;8.238;2023-04-24T10:16:08;1.63;;;0.80;;
66212;SDS011;53015;50.046;8.238;2023-04-24T10:18:33;1.00;;;0.90;;
66212;SDS011;53015;50.046;8.238;2023-04-24T10:21:00;1.98;;;1.00;;
66212;SDS011;53015;50.046;8.238;2023-04-24T10:23:26;1.25;;;1.00;;
66212;SDS011;53015;50.046;8.238;2023-04-24T10:25:53;1.52;;;0.70;;
66212;SDS011;53015;50.046;8.238;2023-04-24T10:28:21;1.25;;;0.80;;
66212;SDS011;53015;50.046;8.238;2023-04-24T10:30:47;1.23;;;0.80;;
66212;SDS011;53015;50.046;8.238;2023-04-24T10:33:13;2.22;;;0.80;;
66212;SDS011;53015;50.046;8.238;2023-04-24T10:35:40;0.95;;;0.80;;
66212;SDS011;53015;50.046;8.238;2023-04-24T10:38:11;1.23;;;0.70;;
66212;SDS011;53015;50.046;8.238;2023-04-24T10:40:38;0.50;;;0.50;;
66212;SDS011;53015;50.046;8.238;2023-04-24T10:43:04;0.80;;;0.55;;
66212;SDS011;53015;50.046;8.238;2023-04-24T10:45:32;1.42;;;0.68;;
66212;SDS011;53015;50.046;8.238;2023-04-24T10:47:57;1.85;;;0.50;;
66212;SDS011;53015;50.046;8.238;2023-04-24T10:50:23;0.40;;;0.40;;
66212;SDS011;53015;50.046;8.238;2023-04-24T10:52:51;0.50;;;0.50;;
66212;SDS011;53015;50.046;8.238;2023-04-24T10:55:16;0.90;;;0.60;;
66212;SDS011;53015;50.046;8.238;2023-04-24T10:58:09;0.75;;;0.60;;
66212;SDS011;53015;50.046;8.238;2023-04-24T11:00:37;3.08;;;0.50;;
66212;SDS011;53015;50.046;8.238;2023-04-24T11:03:04;1.67;;;0.85;;
66212;SDS011;53015;50.046;8.238;2023-04-24T11:08:22;2.17;;;0.68;;
66212;SDS011;53015;50.046;8.238;2023-04-24T11:10:54;1.35;;;0.95;;
66212;SDS011;53015;50.046;8.238;2023-04-24T11:13:21;2.53;;;0.70;;
66212;SDS011;53015;50.046;8.238;2023-04-24T11:15:54;1.50;;;1.10;;
66212;SDS011;53015;50.046;8.238;2023-04-24T11:18:37;1.33;;;0.80;;
66212;SDS011;53015;50.046;8.238;2023-04-24T11:21:09;0.82;;;0.70;;
66212;SDS011;53015;50.046;8.238;2023-04-24T11:23:35;2.05;;;0.80;;
66212;SDS011;53015;50.046;8.238;2023-04-24T11:26:09;1.63;;;0.80;;
66212;SDS011;53015;50.046;8.238;2023-04-24T11:28:35;1.35;;;0.80;;
66212;SDS011;53015;50.046;8.238;2023-04-24T11:31:15;0.60;;;0.60;;
66212;SDS011;53015;50.046;8.238;2023-04-24T11:34:05;2.85;;;0.82;;
66212;SDS011;53015;50.046;8.238;2023-04-24T11:36:31;0.80;;;0.70;;
66212;SDS011;53015;50.046;8.238;2023-04-24T11:38:57;2.38;;;0.60;;
66212;SDS011;53015;50.046;8.238;2023-04-24T11:41:23;1.27;;;0.80;;
66212;SDS011;53015;50.046;8.238;2023-04-24T11:43:50;2.47;;;0.75;;
66212;SDS011;53015;50.046;8.238;2023-04-24T11:46:18;2.60;;;0.90;;
66212;SDS011;53015;50.046;8.238;2023-04-24T11:48:45;1.40;;;0.70;;
66212;SDS011;53015;50.046;8.238;2023-04-24T11:51:11;1.35;;;1.00;;
66212;SDS011;53015;50.046;8.238;2023-04-24T11:53:37;1.25;;;0.75;;
66212;SDS011;53015;50.046;8.238;2023-04-24T11:56:03;2.10;;;1.30;;
66212;SDS011;53015;50.046;8.238;2023-04-24T11:58:28;2.58;;;1.10;;
66212;SDS011;53015;50.046;8.238;2023-04-24T12:00:55;1.70;;;1.40;;
66212;SDS011;53015;50.046;8.238;2023-04-24T12:03:23;3.75;;;1.30;;
66212;SDS011;53015;50.046;8.238;2023-04-24T12:05:48;2.25;;;1.33;;
66212;SDS011;53015;50.046;8.238;2023-04-24T12:08:26;1.95;;;1.20;;
66212;SDS011;53015;50.046;8.238;2023-04-24T12:10:52;3.42;;;1.52;;
66212;SDS011;53015;50.046;8.238;2023-04-24T12:13:17;2.65;;;1.75;;
66212;SDS011;53015;50.046;8.238;2023-04-24T12:15:43;4.20;;;2.30;;
66212;SDS011;53015;50.046;8.238;2023-04-24T12:18:11;2.47;;;1.70;;
66212;SDS011;53015;50.046;8.238;2023-04-24T12:20:40;4.18;;;1.67;;
66212;SDS011;53015;50.046;8.238;2023-04-24T12:23:05;4.03;;;2.13;;
66212;SDS011;53015;50.046;8.238;2023-04-24T12:25:31;2.25;;;1.80;;
66212;SDS011;53015;50.046;8.238;2023-04-24T12:28:08;2.25;;;1.52;;
66212;SDS011;53015;50.046;8.238;2023-04-24T12:30:35;3.58;;;1.60;;
66212;SDS011;53015;50.046;8.238;2023-04-24T12:33:04;3.30;;;2.00;;
66212;SDS011;53015;50.046;8.238;2023-04-24T12:35:30;4.45;;;1.98;;
66212;SDS011;53015;50.046;8.238;2023-04-24T12:38:06;4.75;;;1.88;;
66212;SDS011;53015;50.046;8.238;2023-04-24T12:40:32;2.47;;;1.70;;
66212;SDS011;53015;50.046;8.238;2023-04-24T12:42:57;3.25;;;1.38;;
66212;SDS011;53015;50.046;8.238;2023-04-24T12:45:23;3.03;;;1.70;;
66212;SDS011;53015;50.046;8.238;2023-04-24T12:47:48;6.00;;;1.98;;
66212;SDS011;53015;50.046;8.238;2023-04-24T12:50:14;3.38;;;1.80;;
66212;SDS011;53015;50.046;8.238;2023-04-24T12:52:40;2.80;;;1.70;;
66212;SDS011;53015;50.046;8.238;2023-04-24T12:55:08;2.47;;;1.50;;
66212;SDS011;53015;50.046;8.238;2023-04-24T12:57:34;1.88;;;1.67;;
66212;SDS011;53015;50.046;8.238;2023-04-24T13:00:01;1.65;;;1.55;;
66212;SDS011;53015;50.046;8.238;2023-04-24T13:02:28;2.53;;;1.45;;
66212;SDS011;53015;50.046;8.238;2023-04-24T13:04:54;4.30;;;1.90;;
66212;SDS011;53015;50.046;8.238;2023-04-24T13:07:20;4.68;;;1.73;;
66212;SDS011;53015;50.046;8.238;2023-04-24T13:09:47;3.00;;;1.80;;
66212;SDS011;53015;50.046;8.238;2023-04-24T13:12:14;2.80;;;1.52;;
66212;SDS011;53015;50.046;8.238;2023-04-24T13:14:40;2.85;;;1.73;;
66212;SDS011;53015;50.046;8.238;2023-04-24T13:17:06;6.03;;;1.73;;
66212;SDS011;53015;50.046;8.238;2023-04-24T13:19:35;3.55;;;1.75;;
66212;SDS011;53015;50.046;8.238;2023-04-24T13:22:01;2.03;;;1.35;;
66212;SDS011;53015;50.046;8.238;2023-04-24T13:24:27;4.07;;;1.55;;
66212;SDS011;53015;50.046;8.238;2023-04-24T13:26:52;2.05;;;1.58;;
66212;SDS011;53015;50.046;8.238;2023-04-24T13:29:19;2.40;;;1.50;;
66212;SDS011;53015;50.046;8.238;2023-04-24T13:31:45;5.07;;;2.17;;
66212;SDS011;53015;50.046;8.238;2023-04-24T13:34:11;4.00;;;1.75;;
66212;SDS011;53015;50.046;8.238;2023-04-24T13:36:37;3.22;;;1.83;;
66212;SDS011;53015;50.046;8.238;2023-04-24T13:39:03;1.80;;;1.60;;
66212;SDS011;53015;50.046;8.238;2023-04-24T13:41:30;3.88;;;1.75;;
66212;SDS011;53015;50.046;8.238;2023-04-24T13:43:57;3.40;;;1.63;;
66212;SDS011;53015;50.046;8.238;2023-04-24T13:46:23;5.00;;;1.90;;
66212;SDS011;53015;50.046;8.238;2023-04-24T13:48:49;5.55;;;1.85;;
66212;SDS011;53015;50.046;8.238;2023-04-24T13:51:14;3.83;;;1.95;;
66212;SDS011;53015;50.046;8.238;2023-04-24T13:53:40;2.80;;;1.50;;
66212;SDS011;53015;50.046;8.238;2023-04-24T13:56:05;3.83;;;1.65;;
66212;SDS011;53015;50.046;8.238;2023-04-24T13:58:31;2.90;;;1.63;;
66212;SDS011;53015;50.046;8.238;2023-04-24T14:00:57;2.05;;;1.63;;
66212;SDS011;53015;50.046;8.238;2023-04-24T14:03:24;2.92;;;1.70;;
66212;SDS011;53015;50.046;8.238;2023-04-24T14:05:49;7.43;;;1.92;;
66212;SDS011;53015;50.046;8.238;2023-04-24T14:08:15;3.97;;;1.70;;
66212;SDS011;53015;50.046;8.238;2023-04-24T14:10:40;2.78;;;1.60;;
66212;SDS011;53015;50.046;8.238;2023-04-24T14:13:07;5.10;;;1.90;;
66212;SDS011;53015;50.046;8.238;2023-04-24T14:15:32;1.40;;;1.30;;
66212;SDS011;53015;50.046;8.238;2023-04-24T14:17:58;3.67;;;1.80;;
66212;SDS011;53015;50.046;8.238;2023-04-24T14:20:25;4.63;;;1.52;;
66212;SDS011;53015;50.046;8.238;2023-04-24T14:22:50;4.00;;;1.67;;
66212;SDS011;53015;50.046;8.238;2023-04-24T14:25:16;4.90;;;1.75;;
66212;SDS011;53015;50.046;8.238;2023-04-24T14:27:41;3.20;;;1.70;;
66212;SDS011;53015;50.046;8.238;2023-04-24T14:30:07;3.97;;;1.70;;
66212;SDS011;53015;50.046;8.238;2023-04-24T14:32:33;2.88;;;1.63;;
66212;SDS011;53015;50.046;8.238;2023-04-24T14:34:59;3.22;;;1.80;;
66212;SDS011;53015;50.046;8.238;2023-04-24T14:37:25;3.10;;;1.90;;
66212;SDS011;53015;50.046;8.238;2023-04-24T14:39:51;3.35;;;1.60;;
66212;SDS011;53015;50.046;8.238;2023-04-24T14:42:16;2.58;;;1.38;;
66212;SDS011;53015;50.046;8.238;2023-04-24T14:44:42;4.25;;;1.80;;